Terminal Aerodrome Forecast
Issued by NWS Upton, NY

Home | Current Version | Previous Version | Text Only | Print | Product List | Glossary On
Versions: 1 2 3 4 5 6 7 8 9 10 11 12 13 14 15 16 17 18 19 20 21 22 23 24
000
FTUS41 KOKX 280200 AAA
TAFBDR
TAF AMD
KBDR 280237Z 2803/2824 18006KT P6SM FEW050 BKN250
     FM280700 19008KT P6SM VCSH SCT040 BKN100
      TEMPO 2807/2810 5SM TSRA BKN015CB
     FM281300 23012KT P6SM BKN050
     FM281700 27015G22KT P6SM SCT050=

USA.gov is the U.S. government's official web portal to all federal, state and local government web resources and services.